Time,TemperatureF,DewpointF,PressureIn,WindDirection,WindDirectionDegrees,WindSpeedMPH,WindSpeedGustMPH,Humidity,HourlyPrecipIn,Conditions,Clouds,dailyrainin,SolarRadiationWatts/m^2,SoftwareType,DateUTC
2013-02-01 00:00:00,19.4,7.4,29.83,WNW,303,8.0,15.0,59,0.00,CLR,,0.00,0.0,WeatherDisplay:10.37,2013-02-01 05:00:00,
2013-02-01 00:01:00,19.6,7.6,29.83,NW,315,8.1,10.0,59,0.00,CLR,,0.00,0.0,WeatherDisplay:10.37,2013-02-01 05:01:00,
2013-02-01 00:03:00,19.6,8.7,29.83,NW,315,7.6,10.4,62,0.00,CLR,,0.00,0.0,WeatherDisplay:10.37,2013-02-01 05:03:00,
2013-02-01 00:08:00,19.6,9.4,29.83,NW,315,15.0,17.5,64,0.00,CLR,,0.00,0.0,WeatherDisplay:10.37,2013-02-01 05:08:00,
2013-02-01 00:13:00,18.0,7.1,29.83,NW,315,11.4,17.3,62,0.00,CLR,,0.00,0.0,WeatherDisplay:10.37,2013-02-01 05:13:00,
2013-02-01 00:18:00,17.1,4.8,29.83,WNW,292,14.5,19.6,58,0.00,CLR,,0.00,0.0,WeatherDisplay:10.37,2013-02-01 05:18:00,
2013-02-01 00:23:00,16.5,2.3,29.83,WNW,292,14.0,16.1,53,0.00,CLR,,0.00,0.0,WeatherDisplay:10.37,2013-02-01 05:23:00,
2013-02-01 00:28:00,16.5,1.9,29.83,WNW,292,10.9,13.8,52,0.00,CLR,,0.00,0.0,WeatherDisplay:10.37,2013-02-01 05:28:00,
2013-02-01 00:33:00,16.5,2.7,29.83,NW,315,9.7,12.7,54,0.00,CLR,,0.00,0.0,WeatherDisplay:10.37,2013-02-01 05:33:00,
2013-02-01 00:38:00,16.7,3.7,29.83,NW,315,8.3,10.4,56,0.00,CLR,,0.00,0.0,WeatherDisplay:10.37,2013-02-01 05:38:00,
2013-02-01 00:43:00,16.3,3.4,29.85,NW,315,11.4,15.0,56,0.00,CLR,,0.00,0.0,WeatherDisplay:10.37,2013-02-01 05:43:00,
2013-02-01 00:48:00,16.2,4.0,29.85,WNW,292,13.2,24.2,58,0.00,CLR,,0.00,0.0,WeatherDisplay:10.37,2013-02-01 05:48:00,
2013-02-01 00:53:00,15.3,1.2,29.85,WNW,292,15.0,20.7,53,0.00,CLR,,0.00,0.0,WeatherDisplay:10.37,2013-02-01 05:53:00,
2013-02-01 00:58:00,15.3,0.3,29.85,NW,315,8.3,10.5,51,0.00,CLR,,0.00,0.0,WeatherDisplay:10.37,2013-02-01 05:58:00,
2013-02-01 01:03:00,15.1,0.2,29.85,WNW,292,9.2,10.5,51,0.00,CLR,,0.00,0.0,WeatherDisplay:10.37,2013-02-01 06:03:00,
2013-02-01 01:08:00,15.1,1.0,29.85,NW,315,10.5,13.2,53,0.00,CLR,,0.00,0.0,WeatherDisplay:10.37,2013-02-01 06:08:00,
2013-02-01 01:13:00,15.3,1.6,29.88,NW,315,7.1,13.7,54,0.00,CLR,,0.00,0.0,WeatherDisplay:10.37,2013-02-01 06:13:00,
2013-02-01 01:18:00,14.9,0.0,29.88,WNW,292,9.7,12.7,51,0.00,CLR,,0.00,0.0,WeatherDisplay:10.37,2013-02-01 06:18:00,
2013-02-01 01:23:00,14.9,0.0,29.88,West,270,8.3,10.4,51,0.00,CLR,,0.00,0.0,WeatherDisplay:10.37,2013-02-01 06:23:00,
2013-02-01 01:28:00,15.1,0.6,29.85,NW,315,6.7,10.9,52,0.00,CLR,,0.00,0.0,WeatherDisplay:10.37,2013-02-01 06:28:00,
2013-02-01 01:33:00,14.9,0.0,29.85,WNW,292,8.3,15.0,51,0.00,CLR,,0.00,0.0,WeatherDisplay:10.37,2013-02-01 06:33:00,
2013-02-01 01:38:00,14.9,-0.8,29.85,West,270,8.1,12.7,49,0.00,CLR,,0.00,0.0,WeatherDisplay:10.37,2013-02-01 06:38:00,
2013-02-01 01:43:00,14.7,-1.9,29.88,SW,225,10.5,11.5,47,0.00,CLR,,0.00,0.0,WeatherDisplay:10.37,2013-02-01 06:43:00,
2013-02-01 01:48:00,14.9,-1.7,29.88,NW,315,9.2,10.5,47,0.00,CLR,,0.00,0.0,WeatherDisplay:10.37,2013-02-01 06:48:00,
2013-02-01 01:53:00,14.2,-0.7,29.88,WNW,292,11.4,17.3,51,0.00,CLR,,0.00,0.0,WeatherDisplay:10.37,2013-02-01 06:53:00,
2013-02-01 01:58:00,14.2,0.6,29.88,NW,315,10.5,12.7,54,0.00,CLR,,0.00,0.0,WeatherDisplay:10.37,2013-02-01 06:58:00,
2013-02-01 02:03:00,14.0,0.4,29.88,WNW,292,9.2,13.2,54,0.00,CLR,,0.00,0.0,WeatherDisplay:10.37,2013-02-01 07:03:00,
2013-02-01 02:08:00,13.5,-0.1,29.88,NW,315,15.9,19.6,54,0.00,CLR,,0.00,0.0,WeatherDisplay:10.37,2013-02-01 07:08:00,
2013-02-01 02:13:00,13.3,-0.3,29.91,West,270,9.7,13.2,54,0.00,CLR,,0.00,0.0,WeatherDisplay:10.37,2013-02-01 07:13:00,
2013-02-01 02:18:00,12.9,-0.6,29.91,NW,315,11.8,15.0,54,0.00,CLR,,0.00,0.0,WeatherDisplay:10.37,2013-02-01 07:18:00,
2013-02-01 02:23:00,12.6,-1.0,29.91,WNW,292,13.7,15.0,54,0.00,CLR,,0.00,0.0,WeatherDisplay:10.37,2013-02-01 07:23:00,
2013-02-01 02:28:00,12.4,-1.1,29.91,NW,315,11.4,16.1,54,0.00,CLR,,0.00,0.0,WeatherDisplay:10.37,2013-02-01 07:28:00,
2013-02-01 02:34:00,12.2,-1.3,29.91,WNW,292,11.4,17.3,54,0.00,CLR,,0.00,0.0,WeatherDisplay:10.37,2013-02-01 07:34:00,
2013-02-01 02:39:00,12.2,-1.3,29.91,West,270,8.1,12.8,54,0.00,CLR,,0.00,0.0,WeatherDisplay:10.37,2013-02-01 07:39:00,
2013-02-01 02:44:00,12.2,-1.3,29.91,NW,315,10.9,13.8,54,0.00,CLR,,0.00,0.0,WeatherDisplay:10.37,2013-02-01 07:44:00,
2013-02-01 02:49:00,12.6,-1.0,29.91,West,270,8.3,13.8,54,0.00,CLR,,0.00,0.0,WeatherDisplay:10.37,2013-02-01 07:49:00,
2013-02-01 02:54:00,12.6,-1.0,29.91,SW,225,10.9,17.3,54,0.00,CLR,,0.00,0.0,WeatherDisplay:10.37,2013-02-01 07:54:00,
2013-02-01 02:59:00,12.4,-1.1,29.91,NW,315,14.5,21.9,54,0.00,CLR,,0.00,0.0,WeatherDisplay:10.37,2013-02-01 07:59:00,
2013-02-01 03:04:00,12.2,-1.3,29.91,WNW,292,15.0,19.6,54,0.00,CLR,,0.00,0.0,WeatherDisplay:10.37,2013-02-01 08:04:00,
2013-02-01 03:09:00,12.0,-1.5,29.94,WNW,292,14.0,17.3,54,0.00,CLR,,0.00,0.0,WeatherDisplay:10.37,2013-02-01 08:09:00,
2013-02-01 03:14:00,12.0,-1.5,29.94,WNW,292,11.4,15.0,54,0.00,CLR,,0.00,0.0,WeatherDisplay:10.37,2013-02-01 08:14:00,
2013-02-01 03:19:00,11.8,-1.6,29.94,West,270,10.9,18.4,54,0.00,CLR,,0.00,0.0,WeatherDisplay:10.37,2013-02-01 08:19:00,
2013-02-01 03:24:00,11.8,-1.6,29.94,West,270,16.3,18.4,54,0.00,CLR,,0.00,0.0,WeatherDisplay:10.37,2013-02-01 08:24:00,
2013-02-01 03:29:00,11.7,-1.8,29.94,WNW,292,12.3,17.3,54,0.00,CLR,,0.00,0.0,WeatherDisplay:10.37,2013-02-01 08:29:00,
2013-02-01 03:34:00,11.5,-2.0,29.94,WNW,292,12.3,15.0,54,0.00,CLR,,0.00,0.0,WeatherDisplay:10.37,2013-02-01 08:34:00,
2013-02-01 03:39:00,11.3,-2.1,29.94,WNW,292,9.2,13.8,54,0.00,CLR,,0.00,0.0,WeatherDisplay:10.37,2013-02-01 08:39:00,
2013-02-01 03:44:00,10.9,-2.5,29.94,West,270,10.9,15.0,54,0.00,CLR,,0.00,0.0,WeatherDisplay:10.37,2013-02-01 08:44:00,
2013-02-01 03:49:00,10.8,-2.6,29.94,West,270,14.5,19.6,54,0.00,CLR,,0.00,0.0,WeatherDisplay:10.37,2013-02-01 08:49:00,
2013-02-01 03:54:00,10.8,-2.6,29.97,West,270,13.7,20.7,54,0.00,CLR,,0.00,0.0,WeatherDisplay:10.37,2013-02-01 08:54:00,
2013-02-01 03:59:00,10.4,-3.0,29.97,NW,315,9.7,15.0,54,0.00,CLR,,0.00,0.0,WeatherDisplay:10.37,2013-02-01 08:59:00,
2013-02-01 04:04:00,10.2,-3.2,29.97,West,270,9.2,17.3,54,0.00,CLR,,0.00,0.0,WeatherDisplay:10.37,2013-02-01 09:04:00,
2013-02-01 04:09:00,10.0,-3.3,29.97,West,270,11.8,15.4,54,0.00,CLR,,0.00,0.0,WeatherDisplay:10.37,2013-02-01 09:09:00,
2013-02-01 04:14:00,9.9,-3.5,29.97,West,270,11.8,16.3,54,0.00,CLR,,0.00,0.0,WeatherDisplay:10.37,2013-02-01 09:14:00,
2013-02-01 04:19:00,9.7,-3.7,29.97,NW,315,10.5,16.1,54,0.00,CLR,,0.00,0.0,WeatherDisplay:10.37,2013-02-01 09:19:00,
2013-02-01 04:24:00,9.5,-3.8,30.00,West,270,12.3,17.3,54,0.00,CLR,,0.00,0.0,WeatherDisplay:10.37,2013-02-01 09:24:00,
2013-02-01 04:29:00,9.3,-4.0,30.00,WNW,292,11.4,15.0,54,0.00,CLR,,0.00,0.0,WeatherDisplay:10.37,2013-02-01 09:29:00,
2013-02-01 04:34:00,9.3,-4.0,30.00,West,270,13.7,18.4,54,0.00,CLR,,0.00,0.0,WeatherDisplay:10.37,2013-02-01 09:34:00,
2013-02-01 04:39:00,9.1,-4.2,30.00,West,270,12.8,17.3,54,0.00,CLR,,0.00,0.0,WeatherDisplay:10.37,2013-02-01 09:39:00,
2013-02-01 04:44:00,8.8,-4.5,30.00,West,270,11.4,17.3,54,0.00,CLR,,0.00,0.0,WeatherDisplay:10.37,2013-02-01 09:44:00,
2013-02-01 04:49:00,8.8,-4.5,30.00,WSW,248,8.7,15.0,54,0.00,CLR,,0.00,0.0,WeatherDisplay:10.37,2013-02-01 09:49:00,
2013-02-01 04:54:00,8.6,-4.7,30.00,West,270,10.5,13.8,54,0.00,CLR,,0.00,0.0,WeatherDisplay:10.37,2013-02-01 09:54:00,
2013-02-01 04:59:00,8.6,-4.7,30.00,NW,315,11.8,15.0,54,0.00,CLR,,0.00,0.0,WeatherDisplay:10.37,2013-02-01 09:59:00,
2013-02-01 05:04:00,8.6,-4.7,30.00,WNW,292,7.1,9.2,54,0.00,CLR,,0.00,0.0,WeatherDisplay:10.37,2013-02-01 10:04:00,
2013-02-01 05:09:00,8.6,-4.7,30.00,West,270,8.7,15.4,54,0.00,CLR,,0.00,0.0,WeatherDisplay:10.37,2013-02-01 10:09:00,
2013-02-01 05:14:00,8.6,-4.7,30.00,WNW,292,12.8,15.0,54,0.00,CLR,,0.00,0.0,WeatherDisplay:10.37,2013-02-01 10:14:00,
2013-02-01 05:19:00,8.4,-4.8,30.00,West,270,11.4,13.8,54,0.00,CLR,,0.00,0.0,WeatherDisplay:10.37,2013-02-01 10:19:00,
2013-02-01 05:24:00,8.4,-4.8,30.03,West,270,11.8,16.1,54,0.00,CLR,,0.00,0.0,WeatherDisplay:10.37,2013-02-01 10:24:00,
2013-02-01 05:29:00,8.2,-5.0,30.03,West,270,10.5,16.1,54,0.00,CLR,,0.00,0.0,WeatherDisplay:10.37,2013-02-01 10:29:00,
2013-02-01 05:34:00,8.1,-5.2,30.03,West,270,10.9,16.1,54,0.00,CLR,,0.00,0.0,WeatherDisplay:10.37,2013-02-01 10:34:00,
2013-02-01 05:39:00,8.1,-5.2,30.03,WNW,292,9.2,13.8,54,0.00,CLR,,0.00,0.0,WeatherDisplay:10.37,2013-02-01 10:39:00,
2013-02-01 05:44:00,8.1,-5.2,30.03,SSW,202,11.8,15.0,54,0.00,CLR,,0.00,0.0,WeatherDisplay:10.37,2013-02-01 10:44:00,
2013-02-01 05:49:00,7.9,-5.3,30.03,West,270,12.3,15.0,54,0.00,CLR,,0.00,0.0,WeatherDisplay:10.37,2013-02-01 10:49:00,
2013-02-01 05:54:00,7.7,-5.5,30.06,WNW,292,11.8,17.0,54,0.00,CLR,,0.00,0.0,WeatherDisplay:10.37,2013-02-01 10:54:00,
2013-02-01 05:59:00,7.5,-5.7,30.06,West,270,10.9,12.7,54,0.00,CLR,,0.00,0.0,WeatherDisplay:10.37,2013-02-01 10:59:00,
2013-02-01 06:04:00,7.5,-5.7,30.06,West,270,7.6,13.8,54,0.00,CLR,,0.00,0.0,WeatherDisplay:10.37,2013-02-01 11:04:00,
2013-02-01 06:09:00,7.3,-5.9,30.06,West,270,10.0,15.0,54,0.00,CLR,,0.00,0.0,WeatherDisplay:10.37,2013-02-01 11:09:00,
2013-02-01 06:14:00,7.2,-6.0,30.06,WNW,292,8.3,11.5,54,0.00,CLR,,0.00,0.0,WeatherDisplay:10.37,2013-02-01 11:14:00,
2013-02-01 06:19:00,7.2,-6.0,30.06,West,270,9.2,17.3,54,0.00,CLR,,0.00,0.0,WeatherDisplay:10.37,2013-02-01 11:19:00,
2013-02-01 06:24:00,7.0,-6.2,30.06,West,270,10.5,13.8,54,0.00,CLR,,0.00,0.0,WeatherDisplay:10.37,2013-02-01 11:24:00,
2013-02-01 06:29:00,7.0,-6.2,30.06,NW,315,9.7,15.0,54,0.00,CLR,,0.00,0.0,WeatherDisplay:10.37,2013-02-01 11:29:00,
2013-02-01 06:34:00,6.8,-6.4,30.06,WNW,292,8.3,13.8,54,0.00,CLR,,0.00,0.0,WeatherDisplay:10.37,2013-02-01 11:34:00,
2013-02-01 06:39:00,6.8,-6.4,30.06,West,270,10.9,15.0,54,0.00,CLR,,0.00,0.0,WeatherDisplay:10.37,2013-02-01 11:39:00,
2013-02-01 06:44:00,6.8,-6.4,30.06,NW,315,9.2,13.8,54,0.00,CLR,,0.00,0.0,WeatherDisplay:10.37,2013-02-01 11:44:00,
2013-02-01 06:49:00,6.8,-6.4,30.06,West,270,12.3,15.0,54,0.00,CLR,,0.00,0.0,WeatherDisplay:10.37,2013-02-01 11:49:00,
2013-02-01 06:54:00,6.6,-6.5,30.09,SW,225,8.7,11.5,54,0.00,CLR,,0.00,0.0,WeatherDisplay:10.37,2013-02-01 11:54:00,
2013-02-01 06:59:00,6.4,-6.7,30.09,West,270,9.7,13.8,54,0.00,CLR,,0.00,0.0,WeatherDisplay:10.37,2013-02-01 11:59:00,
2013-02-01 07:04:00,6.4,-6.7,30.09,West,270,8.7,12.7,54,0.00,CLR,,0.00,0.0,WeatherDisplay:10.37,2013-02-01 12:04:00,
2013-02-01 07:09:00,6.4,-6.7,30.09,WSW,248,9.2,12.3,54,0.00,OVC,,0.00,0.0,WeatherDisplay:10.37,2013-02-01 12:09:00,
2013-02-01 07:14:00,6.4,-6.7,30.09,WNW,292,8.7,10.4,54,0.00,OVC,,0.00,0.0,WeatherDisplay:10.37,2013-02-01 12:14:00,
2013-02-01 07:19:00,6.3,-6.9,30.09,West,270,10.5,15.0,54,0.00,OVC,,0.00,0.0,WeatherDisplay:10.37,2013-02-01 12:19:00,
2013-02-01 07:24:00,6.4,-6.7,30.12,West,270,8.3,14.0,54,0.00,OVC,,0.00,0.0,WeatherDisplay:10.37,2013-02-01 12:24:00,
2013-02-01 07:29:00,6.4,-6.7,30.12,NW,315,12.8,15.0,54,0.00,OVC,,0.00,0.0,WeatherDisplay:10.37,2013-02-01 12:29:00,
2013-02-01 07:34:00,6.4,-6.7,30.12,WNW,292,9.7,13.8,54,0.00,OVC,,0.00,0.0,WeatherDisplay:10.37,2013-02-01 12:34:00,
2013-02-01 07:39:00,6.4,-6.7,30.12,West,270,7.6,9.2,54,0.00,OVC,,0.00,0.0,WeatherDisplay:10.37,2013-02-01 12:39:00,
2013-02-01 07:44:00,6.4,-6.7,30.12,West,270,10.5,15.0,54,0.00,OVC,,0.00,0.0,WeatherDisplay:10.37,2013-02-01 12:44:00,
2013-02-01 07:49:00,6.4,-6.7,30.12,West,270,10.0,13.2,54,0.48,RA,,0.48,0.0,WeatherDisplay:10.37,2013-02-01 12:49:00,
2013-02-01 07:54:00,6.4,-6.7,30.12,WNW,292,8.7,11.5,54,0.48,RA,,0.48,0.0,WeatherDisplay:10.37,2013-02-01 12:54:00,
2013-02-01 07:59:00,6.4,-6.7,30.12,WSW,248,11.8,15.0,54,0.48,OVC,,0.48,0.0,WeatherDisplay:10.37,2013-02-01 12:59:00,
2013-02-01 08:04:00,6.4,-6.7,30.12,West,270,9.2,12.7,54,0.48,OVC,,0.48,0.0,WeatherDisplay:10.37,2013-02-01 13:04:00,
2013-02-01 08:09:00,6.3,-6.9,30.15,West,270,8.1,14.5,54,0.48,OVC,,0.48,0.0,WeatherDisplay:10.37,2013-02-01 13:09:00,
2013-02-01 08:14:00,6.3,-6.9,30.15,West,270,9.2,12.8,54,0.48,OVC,,0.48,0.0,WeatherDisplay:10.37,2013-02-01 13:14:00,
2013-02-01 08:19:00,6.3,-6.9,30.15,SW,225,7.6,9.2,54,0.48,OVC,,0.48,0.0,WeatherDisplay:10.37,2013-02-01 13:19:00,
2013-02-01 08:24:00,6.4,-6.7,30.15,West,270,7.6,11.5,54,0.48,OVC,,0.48,0.0,WeatherDisplay:10.37,2013-02-01 13:24:00,
2013-02-01 08:29:00,6.3,-6.9,30.15,NW,315,12.3,15.4,54,0.48,OVC,,0.48,0.0,WeatherDisplay:10.37,2013-02-01 13:29:00,
2013-02-01 08:34:00,6.3,-6.9,30.15,WNW,292,10.0,11.4,54,0.48,OVC,,0.48,100.0,WeatherDisplay:10.37,2013-02-01 13:34:00,
2013-02-01 08:39:00,6.3,-6.9,30.15,West,270,9.2,11.5,54,0.48,OVC,,0.48,100.0,WeatherDisplay:10.37,2013-02-01 13:39:00,
2013-02-01 08:44:00,6.4,-6.7,30.15,West,270,9.7,11.5,54,0.48,OVC,,0.48,100.0,WeatherDisplay:10.37,2013-02-01 13:44:00,
2013-02-01 08:49:00,6.3,-6.9,30.15,NW,315,5.4,8.1,54,0.00,OVC,,0.48,100.0,WeatherDisplay:10.37,2013-02-01 13:49:00,
2013-02-01 08:54:00,6.4,-6.7,30.18,SW,225,10.0,16.1,54,0.00,OVC,,0.48,100.0,WeatherDisplay:10.37,2013-02-01 13:54:00,
2013-02-01 08:59:00,6.8,-6.4,30.18,West,270,10.5,13.8,54,0.00,OVC,,0.48,100.0,WeatherDisplay:10.37,2013-02-01 13:59:00,
2013-02-01 09:04:00,6.8,-6.4,30.18,West,270,10.0,15.0,54,0.00,OVC,,0.48,100.0,WeatherDisplay:10.37,2013-02-01 14:04:00,
2013-02-01 09:09:00,7.0,-6.2,30.18,WSW,248,8.7,10.4,54,0.00,OVC,,0.48,100.0,WeatherDisplay:10.37,2013-02-01 14:09:00,
2013-02-01 09:14:00,7.0,-6.2,30.18,West,270,8.3,13.8,54,0.00,OVC,,0.48,200.0,WeatherDisplay:10.37,2013-02-01 14:14:00,
2013-02-01 09:19:00,6.8,-6.4,30.18,WSW,248,7.1,11.5,54,0.00,OVC,,0.48,200.0,WeatherDisplay:10.37,2013-02-01 14:19:00,
2013-02-01 09:24:00,7.2,-6.0,30.18,West,270,9.2,12.7,54,0.00,OVC,,0.48,200.0,WeatherDisplay:10.37,2013-02-01 14:24:00,
2013-02-01 09:29:00,7.5,-5.7,30.18,West,270,6.7,9.7,54,0.00,OVC,,0.48,200.0,WeatherDisplay:10.37,2013-02-01 14:29:00,
2013-02-01 09:34:00,7.5,-5.7,30.18,West,270,10.9,12.8,54,0.00,OVC,,0.48,200.0,WeatherDisplay:10.37,2013-02-01 14:34:00,
2013-02-01 09:39:00,7.7,-5.5,30.18,West,270,8.1,11.5,54,0.00,OVC,,0.48,200.0,WeatherDisplay:10.37,2013-02-01 14:39:00,
2013-02-01 09:44:00,7.7,-5.5,30.18,West,270,8.7,10.4,54,0.00,OVC,,0.48,300.0,WeatherDisplay:10.37,2013-02-01 14:44:00,
2013-02-01 09:49:00,8.2,-5.0,30.18,NW,315,6.7,10.9,54,0.00,OVC,,0.48,300.0,WeatherDisplay:10.37,2013-02-01 14:49:00,
2013-02-01 09:54:00,8.1,-5.2,30.21,West,270,10.0,12.7,54,0.00,OVC,,0.48,300.0,WeatherDisplay:10.37,2013-02-01 14:54:00,
2013-02-01 09:59:00,8.1,-5.2,30.21,WNW,292,8.3,12.7,54,0.00,OVC,,0.48,300.0,WeatherDisplay:10.37,2013-02-01 14:59:00,
2013-02-01 10:04:00,8.2,-5.0,30.21,South,180,7.6,11.5,54,0.00,OVC,,0.48,300.0,WeatherDisplay:10.37,2013-02-01 15:04:00,
2013-02-01 10:09:00,9.0,-4.3,30.21,WSW,248,7.6,9.7,54,0.00,OVC,,0.48,300.0,WeatherDisplay:10.37,2013-02-01 15:09:00,
2013-02-01 10:14:00,9.3,-4.0,30.21,West,270,6.7,10.4,54,0.00,OVC,,0.48,300.0,WeatherDisplay:10.37,2013-02-01 15:14:00,
2013-02-01 10:19:00,9.1,-4.2,30.21,WSW,248,10.9,14.0,54,0.00,OVC,,0.48,400.0,WeatherDisplay:10.37,2013-02-01 15:19:00,
2013-02-01 10:24:00,8.6,-4.7,30.21,West,270,6.7,11.5,54,0.00,OVC,,0.48,400.0,WeatherDisplay:10.37,2013-02-01 15:24:00,
2013-02-01 10:29:00,9.3,-4.0,30.21,West,270,8.1,9.2,54,0.00,OVC,,0.48,400.0,WeatherDisplay:10.37,2013-02-01 15:29:00,
2013-02-01 10:34:00,9.5,-3.8,30.21,WNW,292,6.2,10.4,54,0.00,OVC,,0.48,500.0,WeatherDisplay:10.37,2013-02-01 15:34:00,
2013-02-01 10:39:00,10.0,-3.3,30.21,West,270,5.9,10.4,54,0.00,OVC,,0.48,500.0,WeatherDisplay:10.37,2013-02-01 15:39:00,
2013-02-01 10:44:00,9.7,-3.7,30.21,West,270,5.9,13.8,54,0.00,OVC,,0.48,400.0,WeatherDisplay:10.37,2013-02-01 15:44:00,
2013-02-01 10:49:00,9.3,-4.0,30.21,WSW,248,8.3,8.7,54,0.00,OVC,,0.48,500.0,WeatherDisplay:10.37,2013-02-01 15:49:00,
2013-02-01 10:54:00,9.9,-3.5,30.24,SSW,202,6.2,10.4,54,0.00,OVC,,0.48,700.0,WeatherDisplay:10.37,2013-02-01 15:54:00,
2013-02-01 10:59:00,9.9,-3.5,30.24,South,180,6.2,10.4,54,0.00,OVC,,0.48,400.0,WeatherDisplay:10.37,2013-02-01 15:59:00,
2013-02-01 11:04:00,9.3,-4.0,30.24,West,270,6.2,9.2,54,0.00,OVC,,0.48,500.0,WeatherDisplay:10.37,2013-02-01 16:04:00,
2013-02-01 11:09:00,10.2,-3.2,30.24,West,270,4.9,6.2,54,0.00,OVC,,0.48,700.0,WeatherDisplay:10.37,2013-02-01 16:09:00,
2013-02-01 11:14:00,10.0,-3.3,30.24,West,270,5.9,9.2,54,0.00,OVC,,0.48,600.0,WeatherDisplay:10.37,2013-02-01 16:14:00,
2013-02-01 11:19:00,9.3,-4.0,30.24,NW,315,8.3,12.7,54,0.00,OVC,,0.48,800.0,WeatherDisplay:10.37,2013-02-01 16:19:00,
2013-02-01 11:24:00,10.8,-2.6,30.24,SW,225,6.7,10.5,54,0.00,OVC,,0.48,600.0,WeatherDisplay:10.37,2013-02-01 16:24:00,
2013-02-01 11:29:00,10.4,-3.0,30.24,SW,225,7.6,8.3,54,0.00,OVC,,0.48,700.0,WeatherDisplay:10.37,2013-02-01 16:29:00,
2013-02-01 11:35:00,10.0,-3.3,30.24,West,270,8.3,10.5,54,0.00,OVC,,0.48,600.0,WeatherDisplay:10.37,2013-02-01 16:35:00,
2013-02-01 11:40:00,11.3,-2.1,30.24,WNW,292,6.2,9.2,54,0.00,OVC,,0.48,900.0,WeatherDisplay:10.37,2013-02-01 16:40:00,
2013-02-01 11:45:00,11.1,-2.3,30.24,SW,225,6.2,8.7,54,0.00,OVC,,0.48,700.0,WeatherDisplay:10.37,2013-02-01 16:45:00,
2013-02-01 11:50:00,11.5,-2.0,30.24,NW,315,7.6,10.5,54,0.00,OVC,,0.48,700.0,WeatherDisplay:10.37,2013-02-01 16:50:00,
2013-02-01 11:55:00,11.3,-2.1,30.24,West,270,8.3,9.2,54,0.00,OVC,,0.48,700.0,WeatherDisplay:10.37,2013-02-01 16:55:00,
2013-02-01 12:00:00,11.8,-1.6,30.24,West,270,6.7,13.8,54,0.00,OVC,,0.48,800.0,WeatherDisplay:10.37,2013-02-01 17:00:00,
2013-02-01 12:05:00,11.1,-2.3,30.24,West,270,6.2,12.7,54,0.00,OVC,,0.48,600.0,WeatherDisplay:10.37,2013-02-01 17:05:00,
2013-02-01 12:10:00,11.1,-2.3,30.24,West,270,8.1,12.7,54,0.00,OVC,,0.48,700.0,WeatherDisplay:10.37,2013-02-01 17:10:00,
2013-02-01 12:15:00,11.3,-2.1,30.24,West,270,5.9,9.2,54,0.00,OVC,,0.48,900.0,WeatherDisplay:10.37,2013-02-01 17:15:00,
2013-02-01 12:20:00,11.1,-2.3,30.24,WSW,248,9.2,10.5,54,0.00,OVC,,0.48,800.0,WeatherDisplay:10.37,2013-02-01 17:20:00,
2013-02-01 12:25:00,11.7,-1.8,30.24,WSW,248,7.6,10.4,54,0.00,OVC,,0.48,800.0,WeatherDisplay:10.37,2013-02-01 17:25:00,
2013-02-01 12:30:00,11.5,-2.0,30.24,West,270,7.6,8.7,54,0.00,OVC,,0.48,500.0,WeatherDisplay:10.37,2013-02-01 17:30:00,
2013-02-01 12:35:00,12.6,-1.0,30.24,West,270,8.3,12.8,54,0.00,OVC,,0.48,600.0,WeatherDisplay:10.37,2013-02-01 17:35:00,
2013-02-01 12:40:00,13.3,-0.3,30.24,SW,225,6.7,8.1,54,0.00,OVC,,0.48,600.0,WeatherDisplay:10.37,2013-02-01 17:40:00,
2013-02-01 12:45:00,12.2,-1.3,30.24,West,270,8.1,13.8,54,0.00,OVC,,0.48,800.0,WeatherDisplay:10.37,2013-02-01 17:45:00,
2013-02-01 12:50:00,12.7,-0.8,30.24,SW,225,4.0,8.1,54,0.00,OVC,,0.48,600.0,WeatherDisplay:10.37,2013-02-01 17:50:00,
2013-02-01 12:55:00,11.8,-1.6,30.24,WSW,248,6.7,11.5,54,0.00,OVC,,0.48,600.0,WeatherDisplay:10.37,2013-02-01 17:55:00,
2013-02-01 13:00:00,12.4,-1.1,30.27,West,270,8.1,10.5,54,0.00,OVC,,0.48,600.0,WeatherDisplay:10.37,2013-02-01 18:00:00,
2013-02-01 13:05:00,13.3,-0.3,30.27,West,270,4.9,5.8,54,0.00,OVC,,0.48,600.0,WeatherDisplay:10.37,2013-02-01 18:05:00,
2013-02-01 13:10:00,14.0,-8.7,30.24,West,270,4.9,8.1,35,0.00,OVC,,0.48,600.0,WeatherDisplay:10.37,2013-02-01 18:10:00,
2013-02-01 13:15:00,13.3,-9.3,30.24,SW,225,5.9,10.0,35,0.00,OVC,,0.48,600.0,WeatherDisplay:10.37,2013-02-01 18:15:00,
2013-02-01 13:20:00,12.9,-9.6,30.24,WSW,248,10.5,13.2,35,0.00,OVC,,0.48,700.0,WeatherDisplay:10.37,2013-02-01 18:20:00,
2013-02-01 13:25:00,13.3,-9.3,30.24,WSW,248,5.9,8.1,35,0.00,OVC,,0.48,500.0,WeatherDisplay:10.37,2013-02-01 18:25:00,
2013-02-01 13:30:00,12.7,-9.8,30.24,West,270,6.7,10.4,35,0.00,OVC,,0.48,600.0,WeatherDisplay:10.37,2013-02-01 18:30:00,
2013-02-01 13:35:00,12.4,-10.1,30.24,SSW,202,5.9,9.2,35,0.00,OVC,,0.48,500.0,WeatherDisplay:10.37,2013-02-01 18:35:00,
2013-02-01 13:40:00,12.9,-9.6,30.24,SW,225,7.1,10.4,35,0.00,OVC,,0.48,600.0,WeatherDisplay:10.37,2013-02-01 18:40:00,
2013-02-01 13:45:00,13.1,-9.5,30.24,West,270,5.9,9.2,35,0.00,OVC,,0.48,500.0,WeatherDisplay:10.37,2013-02-01 18:45:00,
2013-02-01 13:50:00,12.9,-9.6,30.24,West,270,5.9,10.5,35,0.00,OVC,,0.48,500.0,WeatherDisplay:10.37,2013-02-01 18:50:00,
2013-02-01 13:55:00,12.7,-9.8,30.24,SW,225,8.3,10.5,35,0.00,OVC,,0.48,400.0,WeatherDisplay:10.37,2013-02-01 18:55:00,
2013-02-01 14:00:00,12.9,-9.6,30.24,West,270,5.9,9.2,35,0.00,OVC,,0.48,600.0,WeatherDisplay:10.37,2013-02-01 19:00:00,
2013-02-01 14:05:00,13.3,-9.3,30.24,West,270,8.3,9.7,35,0.00,OVC,,0.48,400.0,WeatherDisplay:10.37,2013-02-01 19:05:00,
2013-02-01 14:10:00,12.7,-9.8,30.24,West,270,7.1,9.2,35,0.00,OVC,,0.48,500.0,WeatherDisplay:10.37,2013-02-01 19:10:00,
2013-02-01 14:15:00,12.7,-9.8,30.24,West,270,4.9,8.3,35,0.00,OVC,,0.48,400.0,WeatherDisplay:10.37,2013-02-01 19:15:00,
2013-02-01 14:20:00,12.7,-9.8,30.24,West,270,7.1,13.8,35,0.00,OVC,,0.48,400.0,WeatherDisplay:10.37,2013-02-01 19:20:00,
2013-02-01 14:25:00,12.7,-9.8,30.21,West,270,7.6,15.0,35,0.00,OVC,,0.48,400.0,WeatherDisplay:10.37,2013-02-01 19:25:00,
2013-02-01 14:30:00,12.9,-9.6,30.21,West,270,7.6,11.8,35,0.00,OVC,,0.48,500.0,WeatherDisplay:10.37,2013-02-01 19:30:00,
2013-02-01 14:35:00,13.5,-9.2,30.21,West,270,7.1,8.3,35,0.00,OVC,,0.48,400.0,WeatherDisplay:10.37,2013-02-01 19:35:00,
2013-02-01 14:40:00,13.6,-9.0,30.24,WNW,292,5.9,8.3,35,0.04,RA,,0.52,500.0,WeatherDisplay:10.37,2013-02-01 19:40:00,
2013-02-01 14:45:00,13.6,-9.0,30.24,SSE,158,7.6,9.7,35,0.04,RA,,0.52,400.0,WeatherDisplay:10.37,2013-02-01 19:45:00,
2013-02-01 14:50:00,13.6,-9.0,30.24,South,180,7.6,9.7,35,0.04,OVC,,0.52,400.0,WeatherDisplay:10.37,2013-02-01 19:50:00,
2013-02-01 14:55:00,13.5,-9.2,30.24,WSW,248,6.2,9.7,35,0.04,OVC,,0.52,400.0,WeatherDisplay:10.37,2013-02-01 19:55:00,
2013-02-01 15:00:00,13.1,-9.5,30.21,WNW,292,8.3,14.5,35,0.04,OVC,,0.52,400.0,WeatherDisplay:10.37,2013-02-01 20:00:00,
2013-02-01 15:05:00,13.3,-9.3,30.21,West,270,4.0,13.8,35,0.04,OVC,,0.52,400.0,WeatherDisplay:10.37,2013-02-01 20:05:00,
2013-02-01 15:10:00,13.3,-9.3,30.24,West,270,7.6,10.5,35,0.04,OVC,,0.52,300.0,WeatherDisplay:10.37,2013-02-01 20:10:00,
2013-02-01 15:15:00,12.7,-9.8,30.24,NW,315,9.2,13.8,35,0.04,OVC,,0.52,300.0,WeatherDisplay:10.37,2013-02-01 20:15:00,
2013-02-01 15:20:00,13.5,-9.2,30.24,West,270,7.6,11.5,35,0.04,OVC,,0.52,400.0,WeatherDisplay:10.37,2013-02-01 20:20:00,
2013-02-01 15:25:00,13.8,-8.8,30.24,SW,225,6.7,10.4,35,0.04,OVC,,0.52,300.0,WeatherDisplay:10.37,2013-02-01 20:25:00,
2013-02-01 15:30:00,13.5,-9.2,30.24,SW,225,5.4,10.0,35,0.04,OVC,,0.52,300.0,WeatherDisplay:10.37,2013-02-01 20:30:00,
2013-02-01 15:35:00,13.3,-9.3,30.24,West,270,7.6,10.4,35,0.04,OVC,,0.52,300.0,WeatherDisplay:10.37,2013-02-01 20:35:00,
2013-02-01 15:40:00,12.9,-9.6,30.21,West,270,7.1,11.5,35,0.00,OVC,,0.52,300.0,WeatherDisplay:10.37,2013-02-01 20:40:00,
2013-02-01 15:45:00,12.9,-9.6,30.21,WSW,248,5.9,9.2,35,0.00,OVC,,0.52,0.0,WeatherDisplay:10.37,2013-02-01 20:45:00,
2013-02-01 15:50:00,13.3,-9.3,30.21,West,270,6.2,9.7,35,0.00,OVC,,0.52,200.0,WeatherDisplay:10.37,2013-02-01 20:50:00,
2013-02-01 15:55:00,12.9,-9.6,30.24,SW,225,5.9,9.7,35,0.00,OVC,,0.52,200.0,WeatherDisplay:10.37,2013-02-01 20:55:00,
2013-02-01 16:00:00,13.3,-9.3,30.24,West,270,4.5,5.8,35,0.00,OVC,,0.52,200.0,WeatherDisplay:10.37,2013-02-01 21:00:00,
2013-02-01 16:05:00,13.3,-9.3,30.24,South,180,4.0,5.8,35,0.00,OVC,,0.52,200.0,WeatherDisplay:10.37,2013-02-01 21:05:00,
2013-02-01 16:10:00,13.5,-9.2,30.24,WSW,248,6.7,9.2,35,0.00,OVC,,0.52,0.0,WeatherDisplay:10.37,2013-02-01 21:10:00,
2013-02-01 16:15:00,12.9,-9.6,30.24,WSW,248,5.4,8.1,35,0.00,OVC,,0.52,100.0,WeatherDisplay:10.37,2013-02-01 21:15:00,
2013-02-01 16:20:00,12.7,-9.8,30.24,SW,225,9.7,10.4,35,0.00,OVC,,0.52,100.0,WeatherDisplay:10.37,2013-02-01 21:20:00,
2013-02-01 16:25:00,13.1,-9.5,30.24,South,180,5.9,8.1,35,0.00,OVC,,0.52,100.0,WeatherDisplay:10.37,2013-02-01 21:25:00,
2013-02-01 16:30:00,12.7,-9.8,30.24,SW,225,9.2,15.0,35,0.00,OVC,,0.52,100.0,WeatherDisplay:10.37,2013-02-01 21:30:00,
2013-02-01 16:35:00,12.9,-9.6,30.24,West,270,5.9,8.7,35,0.00,OVC,,0.52,100.0,WeatherDisplay:10.37,2013-02-01 21:35:00,
2013-02-01 16:40:00,12.9,-9.6,30.24,West,270,5.9,9.2,35,0.00,OVC,,0.52,100.0,WeatherDisplay:10.37,2013-02-01 21:40:00,
2013-02-01 16:45:00,13.1,-9.5,30.24,West,270,4.9,8.3,35,0.00,OVC,,0.52,100.0,WeatherDisplay:10.37,2013-02-01 21:45:00,
2013-02-01 16:50:00,12.9,-9.6,30.24,SW,225,4.0,5.8,35,0.00,OVC,,0.52,100.0,WeatherDisplay:10.37,2013-02-01 21:50:00,
2013-02-01 16:55:00,12.7,-9.8,30.24,South,180,5.4,9.2,35,0.00,OVC,,0.52,100.0,WeatherDisplay:10.37,2013-02-01 21:55:00,
2013-02-01 17:00:00,12.6,-10.0,30.24,South,180,6.7,10.4,35,0.00,OVC,,0.52,0.0,WeatherDisplay:10.37,2013-02-01 22:00:00,
2013-02-01 17:05:00,12.6,-10.0,30.24,WSW,248,6.2,8.1,35,0.00,OVC,,0.52,0.0,WeatherDisplay:10.37,2013-02-01 22:05:00,
2013-02-01 17:10:00,12.2,-10.3,30.24,SW,225,7.6,10.4,35,0.00,OVC,,0.52,0.0,WeatherDisplay:10.37,2013-02-01 22:10:00,
2013-02-01 17:15:00,12.2,-10.3,30.24,West,270,5.9,8.1,35,0.00,OVC,,0.52,0.0,WeatherDisplay:10.37,2013-02-01 22:15:00,
2013-02-01 17:20:00,12.0,-10.4,30.24,SW,225,7.6,8.1,35,0.00,OVC,,0.52,0.0,WeatherDisplay:10.37,2013-02-01 22:20:00,
2013-02-01 17:25:00,12.2,-10.3,30.24,SW,225,6.7,8.1,35,0.00,OVC,,0.52,0.0,WeatherDisplay:10.37,2013-02-01 22:25:00,
2013-02-01 17:30:00,12.2,-10.3,30.24,West,270,6.2,9.2,35,0.00,OVC,,0.52,0.0,WeatherDisplay:10.37,2013-02-01 22:30:00,
2013-02-01 17:35:00,12.2,-10.3,30.24,South,180,7.6,8.3,35,0.00,OVC,,0.52,0.0,WeatherDisplay:10.37,2013-02-01 22:35:00,
2013-02-01 17:40:00,12.0,-10.4,30.24,SW,225,5.9,8.3,35,0.00,OVC,,0.52,0.0,WeatherDisplay:10.37,2013-02-01 22:40:00,
2013-02-01 17:45:00,12.0,-10.4,30.24,SW,225,6.7,9.7,35,0.00,OVC,,0.52,0.0,WeatherDisplay:10.37,2013-02-01 22:45:00,
2013-02-01 17:50:00,11.8,-10.6,30.24,West,270,4.9,6.9,35,0.00,OVC,,0.52,0.0,WeatherDisplay:10.37,2013-02-01 22:50:00,
2013-02-01 17:55:00,11.8,-10.6,30.24,SW,225,4.9,5.8,35,0.00,OVC,,0.52,0.0,WeatherDisplay:10.37,2013-02-01 22:55:00,
2013-02-01 18:00:00,11.8,-10.6,30.24,West,270,6.7,9.2,35,0.00,CLR,,0.52,0.0,WeatherDisplay:10.37,2013-02-01 23:00:00,
2013-02-01 18:05:00,11.7,-10.8,30.24,West,270,4.9,7.6,35,0.00,CLR,,0.52,0.0,WeatherDisplay:10.37,2013-02-01 23:05:00,
2013-02-01 18:10:00,11.5,-10.9,30.24,West,270,9.2,10.4,35,0.00,CLR,,0.52,0.0,WeatherDisplay:10.37,2013-02-01 23:10:00,
2013-02-01 18:15:00,11.3,-11.1,30.24,SW,225,5.9,8.3,35,0.00,CLR,,0.52,0.0,WeatherDisplay:10.37,2013-02-01 23:15:00,
2013-02-01 18:20:00,11.3,-11.1,30.24,WSW,248,8.3,9.2,35,0.00,CLR,,0.52,0.0,WeatherDisplay:10.37,2013-02-01 23:20:00,
2013-02-01 18:25:00,11.5,-10.9,30.24,WSW,248,5.9,8.1,35,0.00,CLR,,0.52,0.0,WeatherDisplay:10.37,2013-02-01 23:25:00,
2013-02-01 18:30:00,11.7,-10.8,30.24,NW,315,7.6,8.1,35,0.00,CLR,,0.52,0.0,WeatherDisplay:10.37,2013-02-01 23:30:00,
2013-02-01 18:35:00,11.7,-10.8,30.24,West,270,5.9,12.7,35,0.00,CLR,,0.52,0.0,WeatherDisplay:10.37,2013-02-01 23:35:00,
2013-02-01 18:40:00,11.7,-10.8,30.24,SW,225,7.1,8.1,35,0.00,CLR,,0.52,0.0,WeatherDisplay:10.37,2013-02-01 23:40:00,
2013-02-01 18:45:00,11.7,-10.8,30.24,WSW,248,6.2,8.1,35,0.00,CLR,,0.52,0.0,WeatherDisplay:10.37,2013-02-01 23:45:00,
2013-02-01 18:50:00,11.5,-10.9,30.24,SW,225,6.7,9.2,35,0.00,CLR,,0.52,0.0,WeatherDisplay:10.37,2013-02-01 23:50:00,
2013-02-01 18:55:00,11.1,-11.3,30.24,West,270,4.0,5.8,35,0.00,CLR,,0.52,0.0,WeatherDisplay:10.37,2013-02-01 23:55:00,
2013-02-01 19:00:00,11.1,-11.3,30.24,West,270,5.4,8.1,35,0.00,CLR,,0.52,0.0,WeatherDisplay:10.37,2013-02-02 00:00:00,
2013-02-01 19:05:00,11.1,-11.3,30.24,West,270,4.5,10.5,35,0.00,CLR,,0.52,0.0,WeatherDisplay:10.37,2013-02-02 00:05:00,
2013-02-01 19:10:00,11.1,-11.3,30.24,West,270,5.4,8.1,35,0.00,CLR,,0.52,0.0,WeatherDisplay:10.37,2013-02-02 00:10:00,
2013-02-01 19:15:00,11.3,-11.1,30.24,WSW,248,7.1,9.2,35,0.00,CLR,,0.52,0.0,WeatherDisplay:10.37,2013-02-02 00:15:00,
2013-02-01 19:20:00,11.3,-11.1,30.24,West,270,5.4,8.3,35,0.00,CLR,,0.52,0.0,WeatherDisplay:10.37,2013-02-02 00:20:00,
2013-02-01 19:25:00,11.5,-10.9,30.24,WNW,292,7.6,10.4,35,0.00,CLR,,0.52,0.0,WeatherDisplay:10.37,2013-02-02 00:25:00,
2013-02-01 19:30:00,11.7,-10.8,30.24,West,270,7.1,8.1,35,0.00,CLR,,0.52,0.0,WeatherDisplay:10.37,2013-02-02 00:30:00,
2013-02-01 19:35:00,11.7,-10.8,30.24,West,270,6.7,8.1,35,0.00,CLR,,0.52,0.0,WeatherDisplay:10.37,2013-02-02 00:35:00,
2013-02-01 19:40:00,11.7,-10.8,30.24,SW,225,4.5,5.8,35,0.00,CLR,,0.52,0.0,WeatherDisplay:10.37,2013-02-02 00:40:00,
2013-02-01 19:45:00,11.7,-10.8,30.24,WSW,248,5.9,6.2,35,0.00,CLR,,0.52,0.0,WeatherDisplay:10.37,2013-02-02 00:45:00,
2013-02-01 19:50:00,11.7,-10.8,30.24,WNW,292,5.4,8.1,35,0.00,CLR,,0.52,0.0,WeatherDisplay:10.37,2013-02-02 00:50:00,
2013-02-01 19:55:00,11.7,-10.8,30.24,WSW,248,6.7,9.2,35,0.00,CLR,,0.52,0.0,WeatherDisplay:10.37,2013-02-02 00:55:00,
2013-02-01 20:00:00,11.7,-10.8,30.24,West,270,5.4,6.9,35,0.00,CLR,,0.52,0.0,WeatherDisplay:10.37,2013-02-02 01:00:00,
2013-02-01 20:05:00,11.3,-11.1,30.24,West,270,5.9,8.1,35,0.00,CLR,,0.52,0.0,WeatherDisplay:10.37,2013-02-02 01:05:00,
2013-02-01 20:10:00,11.3,-11.1,30.24,West,270,6.7,8.1,35,0.00,CLR,,0.52,0.0,WeatherDisplay:10.37,2013-02-02 01:10:00,
2013-02-01 20:15:00,10.9,-11.4,30.24,WSW,248,4.0,5.9,35,0.00,CLR,,0.52,0.0,WeatherDisplay:10.37,2013-02-02 01:15:00,
2013-02-01 20:20:00,10.9,-11.4,30.24,West,270,6.2,8.1,35,0.00,CLR,,0.52,0.0,WeatherDisplay:10.37,2013-02-02 01:20:00,
2013-02-01 20:25:00,10.8,-11.6,30.24,SW,225,2.2,4.0,35,0.00,CLR,,0.52,0.0,WeatherDisplay:10.37,2013-02-02 01:25:00,
2013-02-01 20:30:00,10.9,-11.4,30.24,SW,225,4.9,5.8,35,0.00,CLR,,0.52,0.0,WeatherDisplay:10.37,2013-02-02 01:30:00,
2013-02-01 20:35:00,10.9,-11.4,30.24,West,270,5.9,5.9,35,0.00,CLR,,0.52,0.0,WeatherDisplay:10.37,2013-02-02 01:35:00,
2013-02-01 20:40:00,10.9,-11.4,30.24,WSW,248,4.0,5.8,35,0.00,CLR,,0.52,0.0,WeatherDisplay:10.37,2013-02-02 01:40:00,
2013-02-01 20:45:00,10.9,-11.4,30.24,SW,225,3.6,4.6,35,0.00,CLR,,0.52,0.0,WeatherDisplay:10.37,2013-02-02 01:45:00,
2013-02-01 20:50:00,10.9,-11.4,30.24,SW,225,3.6,4.6,35,0.00,CLR,,0.52,0.0,WeatherDisplay:10.37,2013-02-02 01:50:00,
2013-02-01 20:55:00,10.8,-11.6,30.24,West,270,2.6,4.6,35,0.00,CLR,,0.52,0.0,WeatherDisplay:10.37,2013-02-02 01:55:00,
2013-02-01 21:01:00,10.8,-11.6,30.24,SW,225,2.6,5.8,35,0.00,CLR,,0.52,0.0,WeatherDisplay:10.37,2013-02-02 02:01:00,
2013-02-01 21:06:00,10.4,-11.9,30.24,SW,225,4.5,5.9,35,0.00,CLR,,0.52,0.0,WeatherDisplay:10.37,2013-02-02 02:06:00,
2013-02-01 21:11:00,10.4,-11.9,30.27,WSW,248,4.0,5.8,35,0.00,CLR,,0.52,0.0,WeatherDisplay:10.37,2013-02-02 02:11:00,
2013-02-01 21:16:00,10.2,-12.1,30.27,SW,225,2.6,4.6,35,0.00,CLR,,0.52,0.0,WeatherDisplay:10.37,2013-02-02 02:16:00,
2013-02-01 21:21:00,10.0,-12.2,30.27,South,180,3.1,5.4,35,0.00,CLR,,0.52,0.0,WeatherDisplay:10.37,2013-02-02 02:21:00,
2013-02-01 21:26:00,10.0,-12.2,30.24,WSW,248,0.0,5.8,35,1.08,RA,,1.60,0.0,WeatherDisplay:10.37,2013-02-02 02:26:00,
2013-02-01 21:31:00,10.0,-12.2,30.24,SW,225,4.0,5.8,35,1.98,RA,,3.07,0.0,WeatherDisplay:10.37,2013-02-02 02:31:00,
2013-02-01 21:36:00,10.2,-12.1,30.24,West,270,4.0,4.6,35,2.67,RA,,3.19,0.0,WeatherDisplay:10.37,2013-02-02 02:36:00,
2013-02-01 21:41:00,10.2,-12.1,30.21,SW,225,3.6,4.6,35,3.45,RA,,3.97,0.0,WeatherDisplay:10.37,2013-02-02 02:41:00,
2013-02-01 21:46:00,10.2,-12.1,30.21,SW,225,3.1,4.9,35,3.45,RA,,3.97,0.0,WeatherDisplay:10.37,2013-02-02 02:46:00,
2013-02-01 21:51:00,10.2,-12.1,30.21,SSW,202,3.1,4.6,35,3.45,CLR,,3.97,0.0,WeatherDisplay:10.37,2013-02-02 02:51:00,
2013-02-01 21:56:00,10.2,-12.1,30.21,SW,225,4.5,5.9,35,3.45,CLR,,3.97,0.0,WeatherDisplay:10.37,2013-02-02 02:56:00,
2013-02-01 22:01:00,10.2,-12.1,30.21,SW,225,3.1,4.6,35,3.45,CLR,,3.97,0.0,WeatherDisplay:10.37,2013-02-02 03:01:00,
2013-02-01 22:06:00,10.0,-12.2,30.21,South,180,3.1,5.8,35,3.49,RA,,4.01,0.0,WeatherDisplay:10.37,2013-02-02 03:06:00,
2013-02-01 22:11:00,9.9,-12.4,30.24,SSW,202,0.0,3.5,35,3.49,RA,,4.09,0.0,WeatherDisplay:10.37,2013-02-02 03:11:00,
2013-02-01 22:16:00,9.7,-12.5,30.24,SW,225,3.1,5.8,35,3.57,RA,,4.09,0.0,WeatherDisplay:10.37,2013-02-02 03:16:00,
2013-02-01 22:21:00,9.5,-12.7,30.24,South,180,2.2,4.6,35,3.57,RA,,4.09,0.0,WeatherDisplay:10.37,2013-02-02 03:21:00,
2013-02-01 22:26:00,9.5,-12.7,30.24,SW,225,2.2,5.8,35,3.87,RA,,5.47,0.0,WeatherDisplay:10.37,2013-02-02 03:26:00,
2013-02-01 22:31:00,9.3,-12.9,30.24,SW,225,2.2,4.6,35,2.97,RA,,5.47,0.0,WeatherDisplay:10.37,2013-02-02 03:31:00,
2013-02-01 22:36:00,9.1,-13.0,30.24,SW,225,0.0,3.6,35,2.28,,,5.47,0.0,WeatherDisplay:10.37,2013-02-02 03:36:00,
2013-02-01 22:41:00,9.1,-13.0,30.21,SW,225,2.2,4.6,35,1.50,CLR,,5.47,0.0,WeatherDisplay:10.37,2013-02-02 03:41:00,
2013-02-01 22:46:00,9.0,-13.2,30.21,SW,225,0.0,3.5,35,1.50,CLR,,5.47,0.0,WeatherDisplay:10.37,2013-02-02 03:46:00,
2013-02-01 22:51:00,8.6,-13.5,30.21,South,180,0.0,3.5,35,1.50,CLR,,5.47,0.0,WeatherDisplay:10.37,2013-02-02 03:51:00,
2013-02-01 22:56:00,8.4,-13.7,30.21,South,180,0.0,0.0,35,1.50,CLR,,5.47,0.0,WeatherDisplay:10.37,2013-02-02 03:56:00,
2013-02-01 23:01:00,8.1,-14.0,30.21,South,180,0.0,0.0,35,1.50,CLR,,5.47,0.0,WeatherDisplay:10.37,2013-02-02 04:01:00,
2013-02-01 23:06:00,7.7,-14.3,30.21,South,180,0.0,0.0,35,1.46,CLR,,5.47,0.0,WeatherDisplay:10.37,2013-02-02 04:06:00,
2013-02-01 23:11:00,7.7,-14.3,30.21,South,180,0.0,2.3,35,1.46,CLR,,5.47,0.0,WeatherDisplay:10.37,2013-02-02 04:11:00,
2013-02-01 23:16:00,7.7,-14.3,30.21,South,180,0.0,3.5,35,1.38,CLR,,5.47,0.0,WeatherDisplay:10.37,2013-02-02 04:16:00,
2013-02-01 23:21:00,7.7,-14.3,30.21,South,180,0.0,2.3,35,1.38,CLR,,5.47,0.0,WeatherDisplay:10.37,2013-02-02 04:21:00,
2013-02-01 23:26:00,7.7,-14.3,30.21,SSE,158,0.0,2.3,35,0.00,CLR,,5.47,0.0,WeatherDisplay:10.37,2013-02-02 04:26:00,
2013-02-01 23:31:00,7.7,-14.3,30.21,South,180,0.0,2.3,35,0.00,CLR,,5.47,0.0,WeatherDisplay:10.37,2013-02-02 04:31:00,
2013-02-01 23:36:00,7.5,-14.5,30.21,South,180,0.0,0.0,35,0.00,CLR,,5.47,0.0,WeatherDisplay:10.37,2013-02-02 04:36:00,
2013-02-01 23:41:00,7.3,-14.6,30.21,South,180,0.0,0.0,35,0.00,CLR,,5.47,0.0,WeatherDisplay:10.37,2013-02-02 04:41:00,
2013-02-01 23:46:00,7.5,-14.5,30.21,South,180,2.2,3.1,35,0.00,CLR,,5.47,0.0,WeatherDisplay:10.37,2013-02-02 04:46:00,
2013-02-01 23:51:00,7.5,-14.5,30.21,SW,225,0.0,0.0,35,0.00,CLR,,5.47,0.0,WeatherDisplay:10.37,2013-02-02 04:51:00,
2013-02-01 23:56:00,7.5,-14.5,30.21,South,180,0.0,0.0,35,0.00,CLR,,5.47,0.0,WeatherDisplay:10.37,2013-02-02 04:56:00,